createdAt,value
2023-02-19T00:01:39.585Z,49.00
2023-02-19T00:04:08.299Z,49.00
2023-02-19T00:06:36.415Z,49.00
2023-02-19T00:09:04.691Z,49.00
2023-02-19T00:11:33.822Z,49.00
2023-02-19T00:14:02.196Z,49.00
2023-02-19T00:16:32.058Z,48.30
2023-02-19T00:19:00.240Z,48.90
2023-02-19T00:21:28.365Z,48.90
2023-02-19T00:23:57.082Z,48.90
2023-02-19T00:26:24.919Z,48.90
2023-02-19T00:28:53.369Z,48.90
2023-02-19T00:31:22.361Z,49.00
2023-02-19T00:33:52.739Z,49.00
2023-02-19T00:36:20.627Z,48.90
2023-02-19T00:38:48.593Z,48.90
2023-02-19T00:41:22.803Z,48.90
2023-02-19T00:43:51.480Z,48.90
2023-02-19T00:46:20.820Z,48.80
2023-02-19T00:48:48.910Z,48.90
2023-02-19T00:51:18.144Z,48.80
2023-02-19T00:53:46.043Z,48.70
2023-02-19T00:56:13.933Z,48.70
2023-02-19T00:58:42.197Z,48.80
2023-02-19T01:01:10.441Z,48.70
2023-02-19T01:03:38.764Z,48.70
2023-02-19T01:06:07.311Z,48.80
2023-02-19T01:08:36.518Z,48.80
2023-02-19T01:11:05.183Z,48.90
2023-02-19T01:13:33.123Z,48.70
2023-02-19T01:16:04.365Z,48.90
2023-02-19T01:18:32.283Z,48.90
2023-02-19T01:21:00.176Z,48.80
2023-02-19T01:23:28.133Z,48.80
2023-02-19T01:25:57.341Z,48.90
2023-02-19T01:28:25.259Z,48.80
2023-02-19T01:30:53.258Z,48.80
2023-02-19T01:33:21.194Z,48.80
2023-02-19T01:35:49.099Z,48.90
2023-02-19T01:38:16.982Z,48.80
2023-02-19T01:40:45.025Z,48.80
2023-02-19T01:43:15.841Z,48.90
2023-02-19T01:45:44.542Z,48.90
2023-02-19T01:48:13.313Z,48.90
2023-02-19T01:50:43.837Z,48.90
2023-02-19T01:53:12.025Z,48.90
2023-02-19T01:55:39.868Z,48.90
2023-02-19T01:58:07.762Z,48.90
2023-02-19T02:00:39.920Z,48.90
2023-02-19T02:03:07.842Z,48.90
2023-02-19T02:05:41.187Z,48.80
2023-02-19T02:08:26.914Z,48.90
2023-02-19T02:10:54.829Z,48.80
2023-02-19T02:13:22.850Z,48.80
2023-02-19T02:15:56.057Z,48.90
2023-02-19T02:18:29.898Z,48.90
2023-02-19T02:21:09.477Z,48.80
2023-02-19T02:23:44.022Z,48.90
2023-02-19T02:26:25.492Z,48.90
2023-02-19T02:29:23.162Z,48.90
2023-02-19T02:31:54.963Z,48.90
2023-02-19T02:34:25.561Z,48.90
2023-02-19T02:36:55.245Z,48.90
2023-02-19T02:39:24.711Z,48.90
2023-02-19T02:42:10.564Z,48.90
2023-02-19T02:44:40.836Z,48.90
2023-02-19T02:47:30.643Z,48.90
2023-02-19T02:50:06.017Z,48.90
2023-02-19T02:52:54.745Z,48.90
2023-02-19T02:55:22.921Z,48.80
2023-02-19T02:57:50.816Z,48.90
2023-02-19T03:00:18.840Z,48.90
2023-02-19T03:02:47.128Z,48.80
2023-02-19T03:05:34.042Z,48.80
2023-02-19T03:08:07.467Z,48.70
2023-02-19T03:10:37.716Z,48.80
2023-02-19T03:13:23.609Z,48.70
2023-02-19T03:16:15.864Z,48.80
2023-02-19T03:19:04.467Z,48.70
2023-02-19T03:21:32.450Z,48.70
2023-02-19T03:24:17.593Z,48.70
2023-02-19T03:26:45.696Z,48.70
2023-02-19T03:29:26.991Z,49.70
2023-02-19T03:32:05.459Z,48.70
2023-02-19T03:34:36.518Z,48.70
2023-02-19T03:37:07.920Z,48.70
2023-02-19T03:39:44.230Z,48.60
2023-02-19T03:42:21.792Z,48.60
2023-02-19T03:44:54.678Z,48.60
2023-02-19T03:47:24.994Z,48.70
2023-02-19T03:49:56.370Z,48.60
2023-02-19T03:52:26.378Z,48.60
2023-02-19T03:54:56.077Z,48.60
2023-02-19T03:57:25.966Z,48.60
2023-02-19T03:59:56.681Z,48.60
2023-02-19T04:02:28.750Z,48.60
2023-02-19T04:05:00.407Z,48.60
2023-02-19T04:07:29.224Z,48.50
2023-02-19T04:09:57.059Z,48.60
2023-02-19T04:12:25.313Z,48.50
2023-02-19T04:14:53.952Z,48.40
2023-02-19T04:17:23.583Z,48.40
2023-02-19T04:19:51.520Z,48.50
2023-02-19T04:22:20.704Z,48.40
2023-02-19T04:24:49.542Z,48.40
2023-02-19T04:27:17.491Z,48.40
2023-02-19T04:29:45.409Z,48.50
2023-02-19T04:32:13.699Z,48.40
2023-02-19T04:34:41.619Z,48.40
2023-02-19T04:37:09.457Z,48.40
2023-02-19T04:39:38.634Z,48.40
2023-02-19T04:42:06.596Z,48.40
2023-02-19T04:44:34.539Z,48.50
2023-02-19T04:47:02.526Z,48.50
2023-02-19T04:49:30.447Z,48.60
2023-02-19T04:51:58.322Z,48.50
2023-02-19T04:54:26.397Z,49.50
2023-02-19T04:56:55.685Z,48.70
2023-02-19T04:59:23.545Z,48.60
2023-02-19T05:01:51.391Z,48.60
2023-02-19T05:04:19.271Z,48.60
2023-02-19T05:06:47.214Z,48.60
2023-02-19T05:09:15.096Z,48.60
2023-02-19T05:11:42.934Z,48.60
2023-02-19T05:14:12.271Z,48.60
2023-02-19T05:16:40.707Z,49.50
2023-02-19T05:19:08.572Z,48.50
2023-02-19T05:21:36.413Z,48.60
2023-02-19T05:24:04.747Z,48.50
2023-02-19T05:26:32.643Z,48.60
2023-02-19T05:29:00.690Z,48.50
2023-02-19T05:31:30.032Z,48.50
2023-02-19T05:33:57.999Z,48.50
2023-02-19T05:36:25.916Z,48.60
2023-02-19T05:38:54.313Z,48.50
2023-02-19T05:41:23.148Z,48.50
2023-02-19T05:43:51.084Z,48.50
2023-02-19T05:46:19.894Z,48.50
2023-02-19T05:48:49.429Z,48.50
2023-02-19T05:51:19.107Z,48.50
2023-02-19T05:53:47.122Z,48.50
2023-02-19T05:56:27.858Z,48.50
2023-02-19T05:58:55.871Z,48.60
2023-02-19T06:01:24.709Z,48.50
2023-02-19T06:03:57.114Z,48.50
2023-02-19T06:06:25.467Z,48.60
2023-02-19T06:08:53.352Z,48.50
2023-02-19T06:11:21.350Z,48.50
2023-02-19T06:13:50.364Z,48.50
2023-02-19T06:16:18.626Z,48.60
2023-02-19T06:18:46.637Z,48.50
2023-02-19T06:21:16.158Z,48.40
2023-02-19T06:23:44.062Z,48.40
2023-02-19T06:26:13.029Z,48.40
2023-02-19T06:28:41.119Z,48.60
2023-02-19T06:31:09.792Z,48.40
2023-02-19T06:33:40.369Z,48.40
2023-02-19T06:36:09.355Z,48.40
2023-02-19T06:38:38.575Z,48.40
2023-02-19T06:41:06.959Z,48.40
2023-02-19T06:43:35.196Z,48.40
2023-02-19T06:46:03.685Z,48.40
2023-02-19T06:48:31.722Z,48.50
2023-02-19T06:50:59.580Z,48.40
2023-02-19T06:53:27.599Z,48.30
2023-02-19T06:56:00.437Z,48.40
2023-02-19T06:58:28.571Z,48.30
2023-02-19T07:00:56.521Z,48.40
2023-02-19T07:03:24.471Z,48.30
2023-02-19T07:05:52.394Z,48.30
2023-02-19T07:08:20.266Z,48.30
2023-02-19T07:10:54.762Z,48.30
2023-02-19T07:13:24.021Z,48.40
2023-02-19T07:15:52.380Z,48.30
2023-02-19T07:18:20.404Z,48.30
2023-02-19T07:20:49.445Z,48.30
2023-02-19T07:23:17.344Z,48.20
2023-02-19T07:25:45.186Z,48.30
2023-02-19T07:28:13.061Z,48.20
2023-02-19T07:30:42.379Z,48.20
2023-02-19T07:33:11.370Z,48.20
2023-02-19T07:35:39.233Z,48.20
2023-02-19T07:38:07.117Z,48.20
2023-02-19T07:40:35.796Z,48.10
2023-02-19T07:43:03.634Z,48.10
2023-02-19T07:45:32.780Z,48.10
2023-02-19T07:48:02.000Z,48.10
2023-02-19T07:50:29.925Z,48.10
2023-02-19T07:52:57.761Z,48.10
2023-02-19T07:55:25.602Z,48.10
2023-02-19T07:57:53.478Z,49.10
2023-02-19T08:00:21.536Z,48.20
2023-02-19T08:03:00.623Z,48.10
2023-02-19T08:05:30.644Z,48.10
2023-02-19T08:07:58.546Z,48.20
2023-02-19T08:10:43.933Z,48.10
2023-02-19T08:13:23.017Z,48.20
2023-02-19T08:15:51.267Z,49.20
2023-02-19T08:18:19.474Z,48.20
2023-02-19T08:20:48.816Z,48.20
2023-02-19T08:23:16.663Z,48.30
2023-02-19T08:25:44.667Z,48.30
2023-02-19T08:28:12.607Z,48.30
2023-02-19T08:30:41.168Z,48.30
2023-02-19T08:33:09.239Z,48.30
2023-02-19T08:35:37.323Z,48.30
2023-02-19T08:38:07.258Z,48.30
2023-02-19T08:40:35.155Z,48.40
2023-02-19T08:43:04.118Z,48.30
2023-02-19T08:45:32.080Z,48.30
2023-02-19T08:47:59.948Z,48.30
2023-02-19T08:50:27.927Z,48.30
2023-02-19T08:52:55.783Z,48.30
2023-02-19T08:55:24.978Z,48.30
2023-02-19T08:57:52.979Z,48.20
2023-02-19T09:00:21.331Z,48.20
2023-02-19T09:02:49.308Z,48.30
2023-02-19T09:05:17.334Z,48.20
2023-02-19T09:07:45.247Z,48.20
2023-02-19T09:10:13.838Z,48.30
2023-02-19T09:12:43.082Z,48.30
2023-02-19T09:15:11.001Z,48.40
2023-02-19T09:17:38.860Z,48.20
2023-02-19T09:20:07.125Z,48.20
2023-02-19T09:22:35.024Z,48.20
2023-02-19T09:25:02.906Z,48.20
2023-02-19T09:27:32.279Z,48.20
2023-02-19T09:30:01.568Z,48.20
2023-02-19T09:32:31.426Z,48.20
2023-02-19T09:34:59.301Z,48.10
2023-02-19T09:37:28.106Z,48.20
2023-02-19T09:39:55.999Z,48.10
2023-02-19T09:42:25.535Z,48.10
2023-02-19T09:44:54.310Z,48.20
2023-02-19T09:47:24.663Z,48.20
2023-02-19T09:49:53.430Z,48.10
2023-02-19T09:52:26.428Z,48.10
2023-02-19T09:54:59.273Z,48.20
2023-02-19T09:57:27.245Z,48.10
2023-02-19T10:00:00.253Z,48.10
2023-02-19T10:02:30.822Z,48.10
2023-02-19T10:04:58.923Z,48.10
2023-02-19T10:07:27.691Z,48.10
2023-02-19T10:09:57.739Z,48.10
2023-02-19T10:12:27.573Z,48.10
2023-02-19T10:14:57.411Z,48.00
2023-02-19T10:17:26.515Z,48.10
2023-02-19T10:19:55.820Z,48.10
2023-02-19T10:22:23.663Z,48.00
2023-02-19T10:24:54.041Z,48.00
2023-02-19T10:27:21.899Z,48.00
2023-02-19T10:29:50.356Z,48.00
2023-02-19T10:32:21.184Z,48.00
2023-02-19T10:34:49.234Z,48.00
2023-02-19T10:37:18.955Z,48.00
2023-02-19T10:39:47.636Z,49.00
2023-02-19T10:42:19.896Z,47.90
2023-02-19T10:44:49.152Z,47.90
2023-02-19T10:47:18.141Z,47.90
2023-02-19T10:49:46.367Z,47.90
2023-02-19T10:52:17.922Z,48.00
2023-02-19T10:54:47.296Z,47.90
2023-02-19T10:57:32.805Z,47.90
2023-02-19T11:00:03.921Z,48.00
2023-02-19T11:02:32.069Z,48.00
2023-02-19T11:05:11.977Z,47.90
2023-02-19T11:07:44.537Z,48.00
2023-02-19T11:10:21.955Z,48.00
2023-02-19T11:12:50.383Z,48.00
2023-02-19T11:15:22.024Z,47.90
2023-02-19T11:17:55.999Z,48.00
2023-02-19T11:20:24.028Z,48.00
2023-02-19T11:22:51.900Z,48.00
2023-02-19T11:25:25.404Z,48.00
2023-02-19T11:28:00.479Z,48.00
2023-02-19T11:30:37.236Z,48.00
2023-02-19T11:33:27.754Z,48.10
2023-02-19T11:36:01.004Z,48.10
2023-02-19T11:38:28.839Z,48.00
2023-02-19T11:41:01.506Z,48.00
2023-02-19T11:43:40.604Z,48.10
2023-02-19T11:46:10.738Z,48.10
2023-02-19T11:48:54.819Z,48.00
2023-02-19T11:51:32.070Z,48.00
2023-02-19T11:54:07.617Z,48.00
2023-02-19T11:56:37.769Z,48.00
2023-02-19T11:59:06.211Z,48.00
2023-02-19T12:01:57.541Z,47.90
2023-02-19T12:04:37.735Z,48.00
2023-02-19T12:07:10.097Z,47.90
2023-02-19T12:10:00.219Z,47.90
2023-02-19T12:12:37.958Z,47.80
2023-02-19T12:15:22.477Z,47.90
2023-02-19T12:18:19.524Z,47.80
2023-02-19T12:20:51.300Z,47.80
2023-02-19T12:23:42.929Z,47.80
2023-02-19T12:26:13.615Z,47.70
2023-02-19T12:29:04.250Z,47.80
2023-02-19T12:31:45.711Z,47.80
2023-02-19T12:34:47.384Z,47.80
2023-02-19T12:37:22.159Z,47.70
2023-02-19T12:39:56.869Z,47.70
2023-02-19T12:42:35.379Z,47.70
2023-02-19T12:45:06.307Z,47.70
2023-02-19T12:47:36.124Z,47.80
2023-02-19T12:50:06.552Z,47.80
2023-02-19T12:52:36.723Z,47.80
2023-02-19T12:55:11.060Z,47.80
2023-02-19T12:57:38.903Z,47.80
2023-02-19T13:00:13.797Z,47.80
2023-02-19T13:02:42.733Z,47.80
2023-02-19T13:05:14.488Z,47.80
2023-02-19T13:07:45.518Z,47.80
2023-02-19T13:10:21.108Z,47.80
2023-02-19T13:12:48.937Z,47.80
2023-02-19T13:15:19.903Z,47.80
2023-02-19T13:17:49.370Z,47.80
2023-02-19T13:20:30.266Z,47.70
2023-02-19T13:23:18.741Z,47.70
2023-02-19T13:25:57.455Z,47.60
2023-02-19T13:28:33.878Z,47.70
2023-02-19T13:31:17.496Z,47.70
2023-02-19T13:33:48.596Z,47.70
2023-02-19T13:36:17.573Z,47.60
2023-02-19T13:38:46.276Z,47.60
2023-02-19T13:41:19.838Z,47.50
2023-02-19T13:43:47.918Z,47.50
2023-02-19T13:46:17.338Z,47.40
2023-02-19T13:48:45.401Z,47.40
2023-02-19T13:51:49.183Z,47.50
2023-02-19T13:54:28.043Z,47.40
2023-02-19T13:57:27.540Z,47.40
2023-02-19T13:59:55.518Z,47.40
2023-02-19T14:02:32.034Z,47.40
2023-02-19T14:05:01.403Z,47.40
2023-02-19T14:07:51.671Z,47.50
2023-02-19T14:10:57.765Z,47.60
2023-02-19T14:14:06.729Z,47.50
2023-02-19T14:17:01.271Z,47.50
2023-02-19T14:19:53.832Z,47.90
2023-02-19T14:23:10.509Z,47.40
2023-02-19T14:25:42.504Z,47.40
2023-02-19T14:28:18.470Z,47.50
2023-02-19T14:30:50.746Z,47.50
2023-02-19T14:33:19.736Z,47.50
2023-02-19T14:35:52.051Z,47.50
2023-02-19T14:38:22.270Z,47.50
2023-02-19T14:40:50.156Z,47.40
2023-02-19T14:43:19.039Z,47.40
2023-02-19T14:45:48.448Z,47.40
2023-02-19T14:48:19.754Z,48.40
2023-02-19T14:50:50.225Z,47.50
2023-02-19T14:53:18.081Z,47.50
2023-02-19T14:55:46.572Z,47.40
2023-02-19T14:58:16.078Z,47.40
2023-02-19T15:00:44.391Z,47.30
2023-02-19T15:03:26.354Z,47.30
2023-02-19T15:05:57.698Z,47.40
2023-02-19T15:08:30.147Z,47.30
2023-02-19T15:10:58.107Z,47.40
2023-02-19T15:13:26.802Z,47.30
2023-02-19T15:15:55.344Z,47.40
2023-02-19T15:18:24.456Z,47.40
2023-02-19T15:20:52.788Z,47.40
2023-02-19T15:23:24.228Z,47.40
2023-02-19T15:25:52.163Z,47.40
2023-02-19T15:28:21.069Z,47.40
2023-02-19T15:30:48.980Z,47.40
2023-02-19T15:33:17.644Z,47.40
2023-02-19T15:35:49.205Z,47.40
2023-02-19T15:38:17.079Z,47.50
2023-02-19T15:40:46.986Z,47.40
2023-02-19T15:43:21.765Z,47.40
2023-02-19T15:45:49.640Z,47.50
2023-02-19T15:48:19.298Z,47.40
2023-02-19T15:50:48.709Z,47.50
2023-02-19T15:53:17.991Z,47.50
2023-02-19T15:55:48.530Z,47.50
2023-02-19T15:58:18.773Z,47.40
2023-02-19T16:00:47.697Z,47.50
2023-02-19T16:03:18.910Z,47.40
2023-02-19T16:05:47.126Z,47.40
2023-02-19T16:08:20.367Z,47.50
2023-02-19T16:10:56.832Z,47.50
2023-02-19T16:13:25.586Z,47.30
2023-02-19T16:16:02.421Z,47.20
2023-02-19T16:18:30.410Z,47.30
2023-02-19T16:20:58.523Z,47.40
2023-02-19T16:23:27.412Z,47.40
2023-02-19T16:26:01.211Z,47.40
2023-02-19T16:28:30.284Z,48.40
2023-02-19T16:30:58.437Z,47.30
2023-02-19T16:33:39.763Z,47.30
2023-02-19T16:36:22.034Z,47.30
2023-02-19T16:39:15.894Z,47.30
2023-02-19T16:42:19.291Z,47.20
2023-02-19T16:44:47.863Z,47.10
2023-02-19T16:47:31.735Z,47.10
2023-02-19T16:50:01.649Z,47.10
2023-02-19T16:52:29.647Z,47.20
2023-02-19T16:54:57.506Z,47.10
2023-02-19T16:57:26.702Z,47.20
2023-02-19T16:59:54.540Z,47.10
2023-02-19T17:02:24.273Z,47.10
2023-02-19T17:04:55.047Z,47.20
2023-02-19T17:07:23.564Z,47.10
2023-02-19T17:09:51.415Z,47.10
2023-02-19T17:12:20.116Z,47.10
2023-02-19T17:14:49.283Z,47.20
2023-02-19T17:17:17.228Z,47.10
2023-02-19T17:19:45.142Z,47.20
2023-02-19T17:22:16.853Z,47.20
2023-02-19T17:24:45.911Z,47.20
2023-02-19T17:27:14.002Z,47.20
2023-02-19T17:29:41.843Z,47.20
2023-02-19T17:32:11.307Z,47.20
2023-02-19T17:34:39.288Z,47.30
2023-02-19T17:37:07.228Z,47.30
2023-02-19T17:39:35.193Z,47.30
2023-02-19T17:42:03.211Z,47.30
2023-02-19T17:44:31.180Z,47.40
2023-02-19T17:46:59.027Z,47.30
2023-02-19T17:49:28.214Z,47.30
2023-02-19T17:51:56.201Z,47.30
2023-02-19T17:54:24.074Z,47.40
2023-02-19T17:56:51.988Z,47.40
2023-02-19T17:59:19.854Z,47.30
2023-02-19T18:01:47.826Z,47.30
2023-02-19T18:04:15.780Z,47.30
2023-02-19T18:06:45.159Z,47.30
2023-02-19T18:09:15.373Z,47.30
2023-02-19T18:11:46.321Z,47.30
2023-02-19T18:14:14.202Z,47.30
2023-02-19T18:16:49.382Z,47.30
2023-02-19T18:19:18.054Z,47.30
2023-02-19T18:21:47.271Z,47.20
2023-02-19T18:24:15.594Z,47.30
2023-02-19T18:26:43.583Z,47.30
2023-02-19T18:29:11.513Z,47.30
2023-02-19T18:31:39.477Z,47.30
2023-02-19T18:34:07.533Z,47.30
2023-02-19T18:36:35.410Z,47.30
2023-02-19T18:39:04.655Z,47.30
2023-02-19T18:41:32.598Z,47.30
2023-02-19T18:44:00.744Z,47.30
2023-02-19T18:46:30.049Z,47.40
2023-02-19T18:48:58.897Z,47.30
2023-02-19T18:51:26.783Z,47.30
2023-02-19T18:53:54.712Z,47.30
2023-02-19T18:56:23.925Z,47.30
2023-02-19T18:58:51.812Z,47.30
2023-02-19T19:01:19.811Z,47.30
2023-02-19T19:03:48.022Z,47.30
2023-02-19T19:06:15.925Z,47.30
2023-02-19T19:08:43.833Z,47.30
2023-02-19T19:11:11.954Z,47.20
2023-02-19T19:13:41.256Z,47.30
2023-02-19T19:16:09.147Z,47.30
2023-02-19T19:18:38.143Z,47.30
2023-02-19T19:21:06.438Z,47.30
2023-02-19T19:23:34.303Z,47.30
2023-02-19T19:26:02.262Z,47.30
2023-02-19T19:28:31.553Z,47.30
2023-02-19T19:31:00.858Z,47.30
2023-02-19T19:33:28.760Z,47.30
2023-02-19T19:35:56.665Z,47.30
2023-02-19T19:38:24.642Z,47.20
2023-02-19T19:40:52.594Z,47.20
2023-02-19T19:43:20.494Z,47.20
2023-02-19T19:45:49.946Z,47.20
2023-02-19T19:48:19.190Z,47.20
2023-02-19T19:50:47.251Z,47.20
2023-02-19T19:53:15.162Z,47.20
2023-02-19T19:55:43.231Z,47.20
2023-02-19T19:58:11.283Z,47.20
2023-02-19T20:00:39.406Z,47.20
2023-02-19T20:03:07.981Z,47.20
2023-02-19T20:05:37.496Z,47.20
2023-02-19T20:08:06.033Z,47.10
2023-02-19T20:10:33.928Z,47.20
2023-02-19T20:13:01.978Z,47.00
2023-02-19T20:15:30.025Z,47.00
2023-02-19T20:17:58.132Z,47.00
2023-02-19T20:20:26.191Z,47.00
2023-02-19T20:22:55.592Z,47.00
2023-02-19T20:25:24.105Z,47.00
2023-02-19T20:27:52.048Z,47.00
2023-02-19T20:30:20.315Z,47.00
2023-02-19T20:32:48.217Z,47.00
2023-02-19T20:35:16.812Z,47.00
2023-02-19T20:37:47.701Z,47.00
2023-02-19T20:40:17.830Z,47.00
2023-02-19T20:42:45.691Z,47.00
2023-02-19T20:45:16.639Z,47.00
2023-02-19T20:47:44.553Z,47.00
2023-02-19T20:50:14.028Z,47.00
2023-02-19T20:52:41.945Z,47.00
2023-02-19T20:55:10.386Z,47.00
2023-02-19T20:57:39.597Z,47.00
2023-02-19T21:00:09.096Z,47.00
2023-02-19T21:02:37.036Z,47.00
2023-02-19T21:05:05.104Z,47.00
2023-02-19T21:07:33.353Z,47.00
2023-02-19T21:10:01.265Z,47.00
2023-02-19T21:12:29.132Z,46.90
2023-02-19T21:14:58.478Z,46.90
2023-02-19T21:17:26.405Z,46.90
2023-02-19T21:19:54.272Z,46.90
2023-02-19T21:22:22.602Z,46.80
2023-02-19T21:24:52.054Z,46.80
2023-02-19T21:27:20.068Z,46.70
2023-02-19T21:29:48.133Z,46.70
2023-02-19T21:32:17.549Z,46.70
2023-02-19T21:34:45.476Z,46.60
2023-02-19T21:37:13.345Z,46.70
2023-02-19T21:39:42.761Z,46.70
2023-02-19T21:42:10.724Z,46.60
2023-02-19T21:44:38.574Z,46.60
2023-02-19T21:47:06.520Z,46.70
2023-02-19T21:49:35.725Z,46.60
2023-02-19T21:52:03.619Z,46.60
2023-02-19T21:54:31.465Z,46.60
2023-02-19T21:57:01.802Z,46.70
2023-02-19T21:59:29.721Z,46.70
2023-02-19T22:01:57.818Z,46.70
2023-02-19T22:04:25.659Z,46.70
2023-02-19T22:06:57.213Z,46.70
2023-02-19T22:09:25.082Z,46.70
2023-02-19T22:11:52.936Z,46.80
2023-02-19T22:14:24.135Z,46.80
2023-02-19T22:16:52.066Z,46.80
2023-02-19T22:19:20.007Z,46.80
2023-02-19T22:21:47.831Z,46.70
2023-02-19T22:24:18.377Z,46.80
2023-02-19T22:26:46.460Z,46.90
2023-02-19T22:29:15.024Z,46.80
2023-02-19T22:31:42.997Z,46.90
2023-02-19T22:34:11.075Z,46.80
2023-02-19T22:36:39.110Z,46.80
2023-02-19T22:39:07.725Z,46.90
2023-02-19T22:41:36.954Z,46.90
2023-02-19T22:44:05.268Z,46.80
2023-02-19T22:46:33.088Z,46.80
2023-02-19T22:49:03.244Z,46.80
2023-02-19T22:51:31.146Z,46.80
2023-02-19T22:53:59.458Z,46.80
2023-02-19T22:56:28.115Z,46.80
2023-02-19T22:58:57.836Z,46.80
2023-02-19T23:01:26.222Z,46.70
2023-02-19T23:03:55.163Z,46.70
2023-02-19T23:06:24.087Z,46.70
2023-02-19T23:08:52.007Z,46.80
2023-02-19T23:11:21.775Z,46.80
2023-02-19T23:13:49.680Z,46.80
2023-02-19T23:16:19.032Z,46.80
2023-02-19T23:18:46.938Z,46.80
2023-02-19T23:21:14.816Z,46.80
2023-02-19T23:23:42.798Z,46.70
2023-02-19T23:26:10.861Z,46.70
2023-02-19T23:28:40.331Z,46.80
2023-02-19T23:31:08.458Z,46.80
2023-02-19T23:33:37.797Z,46.80
2023-02-19T23:36:05.982Z,46.80
2023-02-19T23:38:33.884Z,46.70
2023-02-19T23:41:01.854Z,46.70
2023-02-19T23:43:29.770Z,46.80
2023-02-19T23:45:57.833Z,46.70
2023-02-19T23:48:25.743Z,46.80
2023-02-19T23:50:54.937Z,46.80
2023-02-19T23:53:22.800Z,46.70
2023-02-19T23:55:51.619Z,46.80
2023-02-19T23:58:19.542Z,46.80
